createdAt,value
2023-05-01T00:01:27.699Z,96238.72
2023-05-01T00:03:54.448Z,96239.00
2023-05-01T00:06:21.061Z,96236.59
2023-05-01T00:08:47.717Z,96238.41
2023-05-01T00:11:14.252Z,96238.16
2023-05-01T00:13:40.578Z,96241.06
2023-05-01T00:16:11.809Z,96229.97
2023-05-01T00:18:38.668Z,96236.09
2023-05-01T00:21:04.988Z,96238.72
2023-05-01T00:23:31.323Z,96233.91
2023-05-01T00:25:57.612Z,96240.47
2023-05-01T00:28:23.964Z,96230.03
2023-05-01T00:30:50.820Z,96236.34
2023-05-01T00:33:17.136Z,96228.44
2023-05-01T00:35:43.933Z,96232.72
2023-05-01T00:38:10.263Z,96229.13
2023-05-01T00:40:46.048Z,96224.13
2023-05-01T00:43:12.863Z,96225.47
2023-05-01T00:45:40.609Z,96223.19
2023-05-01T00:48:07.142Z,96221.88
2023-05-01T00:50:33.672Z,96221.50
2023-05-01T00:53:00.243Z,96218.94
2023-05-01T00:55:27.457Z,96220.44
2023-05-01T00:57:54.810Z,96215.63
2023-05-01T01:00:23.292Z,96220.69
2023-05-01T01:02:49.839Z,96207.06
2023-05-01T01:05:16.469Z,96202.75
2023-05-01T01:07:59.189Z,96208.88
2023-05-01T01:10:31.403Z,96193.91
2023-05-01T01:13:16.566Z,96193.19
2023-05-01T01:15:50.654Z,96202.28
2023-05-01T01:18:21.880Z,96201.53
2023-05-01T01:20:54.105Z,96195.88
2023-05-01T01:23:39.604Z,96201.22
2023-05-01T01:26:31.819Z,96196.56
2023-05-01T01:29:04.728Z,96189.72
2023-05-01T01:31:39.775Z,96197.09
2023-05-01T01:34:29.472Z,96192.13
2023-05-01T01:36:56.587Z,96188.50
2023-05-01T01:39:27.612Z,96186.78
2023-05-01T01:41:54.633Z,96193.19
2023-05-01T01:44:41.805Z,96191.19
2023-05-01T01:47:09.488Z,96198.03
2023-05-01T01:49:37.202Z,96196.41
2023-05-01T01:52:05.526Z,96191.44
2023-05-01T01:54:40.594Z,96188.88
2023-05-01T01:57:07.948Z,96195.63
2023-05-01T01:59:34.928Z,96189.22
2023-05-01T02:02:02.694Z,96192.28
2023-05-01T02:04:30.048Z,96190.56
2023-05-01T02:06:57.835Z,96188.16
2023-05-01T02:09:25.247Z,96189.22
2023-05-01T02:11:51.761Z,96187.03
2023-05-01T02:14:18.634Z,96179.56
2023-05-01T02:16:45.201Z,96188.09
2023-05-01T02:19:13.108Z,96183.66
2023-05-01T02:21:39.473Z,96178.78
2023-05-01T02:24:07.130Z,96182.25
2023-05-01T02:26:38.580Z,96178.94
2023-05-01T02:29:07.389Z,96178.38
2023-05-01T02:31:34.180Z,96172.19
2023-05-01T02:34:00.739Z,96169.38
2023-05-01T02:36:28.484Z,96171.75
2023-05-01T02:38:54.923Z,96161.31
2023-05-01T02:41:22.071Z,96168.56
2023-05-01T02:43:51.670Z,96168.88
2023-05-01T02:46:18.713Z,96167.56
2023-05-01T02:48:46.075Z,96160.47
2023-05-01T02:51:12.833Z,96165.03
2023-05-01T02:53:40.206Z,96167.56
2023-05-01T02:56:07.984Z,96163.00
2023-05-01T02:58:34.661Z,96162.75
2023-05-01T03:01:01.108Z,96163.56
2023-05-01T03:03:27.940Z,96161.66
2023-05-01T03:05:54.549Z,96167.00
2023-05-01T03:08:20.847Z,96159.22
2023-05-01T03:10:47.429Z,96162.75
2023-05-01T03:13:13.719Z,96162.25
2023-05-01T03:15:39.994Z,96157.41
2023-05-01T03:18:06.971Z,96159.25
2023-05-01T03:20:33.957Z,96154.16
2023-05-01T03:23:00.259Z,96150.38
2023-05-01T03:25:27.536Z,96149.06
2023-05-01T03:27:55.207Z,96156.31
2023-05-01T03:30:21.776Z,96155.56
2023-05-01T03:32:48.158Z,96152.91
2023-05-01T03:35:14.623Z,96154.50
2023-05-01T03:37:41.341Z,96160.34
2023-05-01T03:40:07.965Z,96154.19
2023-05-01T03:42:34.279Z,96159.16
2023-05-01T03:45:01.114Z,96156.78
2023-05-01T03:47:27.621Z,96155.00
2023-05-01T03:49:54.155Z,96158.22
2023-05-01T03:52:20.704Z,96157.13
2023-05-01T03:54:47.050Z,96151.13
2023-05-01T03:57:14.651Z,96153.66
2023-05-01T03:59:43.720Z,96153.66
2023-05-01T04:02:10.410Z,96161.13
2023-05-01T04:04:36.883Z,96154.47
2023-05-01T04:07:03.217Z,96152.91
2023-05-01T04:09:32.620Z,96154.34
2023-05-01T04:11:59.015Z,96152.91
2023-05-01T04:14:25.296Z,96154.75
2023-05-01T04:16:51.934Z,96163.72
2023-05-01T04:19:18.254Z,96165.31
2023-05-01T04:21:44.597Z,96168.13
2023-05-01T04:24:11.010Z,96165.72
2023-05-01T04:26:38.960Z,96176.28
2023-05-01T04:29:05.417Z,96170.53
2023-05-01T04:31:31.774Z,96170.53
2023-05-01T04:33:58.598Z,96168.13
2023-05-01T04:36:25.027Z,96169.72
2023-05-01T04:38:51.325Z,96174.16
2023-05-01T04:41:17.625Z,96173.31
2023-05-01T04:43:43.897Z,96171.59
2023-05-01T04:46:10.432Z,96167.31
2023-05-01T04:48:36.899Z,96177.88
2023-05-01T04:51:04.011Z,96175.56
2023-05-01T04:53:30.886Z,96175.31
2023-05-01T04:55:57.864Z,96183.88
2023-05-01T04:58:24.283Z,96175.84
2023-05-01T05:00:50.866Z,96184.97
2023-05-01T05:03:19.111Z,96174.91
2023-05-01T05:05:48.289Z,96180.25
2023-05-01T05:08:15.170Z,96185.56
2023-05-01T05:10:41.516Z,96186.66
2023-05-01T05:13:07.882Z,96180.38
2023-05-01T05:15:34.252Z,96183.84
2023-05-01T05:18:00.918Z,96190.16
2023-05-01T05:20:28.108Z,96192.16
2023-05-01T05:22:54.469Z,96192.72
2023-05-01T05:25:20.838Z,96190.56
2023-05-01T05:27:47.120Z,96199.91
2023-05-01T05:30:13.898Z,96201.28
2023-05-01T05:32:40.325Z,96194.31
2023-05-01T05:35:07.157Z,96203.03
2023-05-01T05:37:34.129Z,96212.63
2023-05-01T05:40:00.425Z,96207.94
2023-05-01T05:42:27.440Z,96211.03
2023-05-01T05:44:53.837Z,96210.13
2023-05-01T05:47:20.233Z,96208.34
2023-05-01T05:49:46.884Z,96207.69
2023-05-01T05:52:13.620Z,96208.72
2023-05-01T05:54:40.530Z,96213.16
2023-05-01T05:57:07.184Z,96211.81
2023-05-01T05:59:33.635Z,96210.88
2023-05-01T06:02:00.289Z,96210.19
2023-05-01T06:04:27.596Z,96214.97
2023-05-01T06:06:54.636Z,96210.72
2023-05-01T06:09:21.455Z,96219.38
2023-05-01T06:11:48.257Z,96213.78
2023-05-01T06:14:14.995Z,96215.38
2023-05-01T06:16:41.454Z,96218.34
2023-05-01T06:19:07.857Z,96216.94
2023-05-01T06:21:34.306Z,96212.66
2023-05-01T06:24:00.713Z,96212.34
2023-05-01T06:26:28.262Z,96210.00
2023-05-01T06:28:54.846Z,96205.84
2023-05-01T06:31:21.186Z,96211.31
2023-05-01T06:33:47.807Z,96211.44
2023-05-01T06:36:14.103Z,96217.44
2023-05-01T06:38:42.160Z,96215.66
2023-05-01T06:41:08.473Z,96219.03
2023-05-01T06:43:34.787Z,96221.59
2023-05-01T06:46:01.354Z,96222.13
2023-05-01T06:48:27.677Z,96231.94
2023-05-01T06:50:55.364Z,96230.34
2023-05-01T06:53:21.674Z,96230.09
2023-05-01T06:55:48.048Z,96229.03
2023-05-01T06:58:23.604Z,96231.66
2023-05-01T07:00:50.773Z,96231.06
2023-05-01T07:03:17.233Z,96242.72
2023-05-01T07:05:43.609Z,96245.13
2023-05-01T07:08:10.451Z,96244.47
2023-05-01T07:10:37.288Z,96248.72
2023-05-01T07:13:04.542Z,96244.19
2023-05-01T07:15:30.876Z,96253.59
2023-05-01T07:17:58.638Z,96249.97
2023-05-01T07:20:24.981Z,96252.13
2023-05-01T07:22:51.262Z,96251.88
2023-05-01T07:25:17.894Z,96254.06
2023-05-01T07:27:44.186Z,96260.34
2023-05-01T07:30:10.798Z,96262.88
2023-05-01T07:32:37.762Z,96257.78
2023-05-01T07:35:04.383Z,96263.41
2023-05-01T07:37:30.840Z,96263.53
2023-05-01T07:39:58.602Z,96268.63
2023-05-01T07:42:26.636Z,96269.97
2023-05-01T07:44:52.968Z,96268.75
2023-05-01T07:47:19.419Z,96277.47
2023-05-01T07:49:46.039Z,96274.00
2023-05-01T07:52:12.337Z,96281.22
2023-05-01T07:54:38.696Z,96282.03
2023-05-01T07:57:06.434Z,96280.81
2023-05-01T07:59:32.816Z,96282.53
2023-05-01T08:01:59.167Z,96283.63
2023-05-01T08:04:26.621Z,96286.03
2023-05-01T08:06:53.025Z,96287.34
2023-05-01T08:09:19.345Z,96287.47
2023-05-01T08:11:45.677Z,96296.72
2023-05-01T08:14:12.058Z,96289.50
2023-05-01T08:16:38.472Z,96288.69
2023-05-01T08:19:04.972Z,96296.97
2023-05-01T08:21:31.336Z,96298.16
2023-05-01T08:23:57.903Z,96299.91
2023-05-01T08:26:24.308Z,96300.31
2023-05-01T08:28:51.071Z,96309.53
2023-05-01T08:31:19.282Z,96300.84
2023-05-01T08:33:45.609Z,96307.44
2023-05-01T08:36:12.292Z,96308.91
2023-05-01T08:38:38.754Z,96313.97
2023-05-01T08:41:05.771Z,96305.53
2023-05-01T08:43:33.054Z,96309.53
2023-05-01T08:46:03.096Z,96310.59
2023-05-01T08:48:30.089Z,96307.63
2023-05-01T08:51:00.408Z,96326.00
2023-05-01T08:53:27.764Z,96319.13
2023-05-01T08:55:55.258Z,96318.09
2023-05-01T08:58:24.705Z,96317.97
2023-05-01T09:00:51.290Z,96318.22
2023-05-01T09:03:18.109Z,96327.06
2023-05-01T09:05:44.548Z,96311.75
2023-05-01T09:08:10.953Z,96318.84
2023-05-01T09:10:41.233Z,96315.34
2023-05-01T09:13:09.934Z,96313.88
2023-05-01T09:15:36.343Z,96321.13
2023-05-01T09:18:03.779Z,96326.88
2023-05-01T09:20:31.662Z,96322.69
2023-05-01T09:22:58.344Z,96316.09
2023-05-01T09:25:24.745Z,96328.91
2023-05-01T09:27:51.134Z,96330.53
2023-05-01T09:30:49.955Z,96321.38
2023-05-01T09:33:19.329Z,96331.25
2023-05-01T09:35:52.820Z,96323.66
2023-05-01T09:38:22.988Z,96336.00
2023-05-01T09:40:49.773Z,96331.31
2023-05-01T09:43:27.626Z,96325.25
2023-05-01T09:46:09.525Z,96327.38
2023-05-01T09:48:37.520Z,96337.44
2023-05-01T09:51:36.757Z,96324.03
2023-05-01T09:54:04.416Z,96329.09
2023-05-01T09:56:32.176Z,96328.31
2023-05-01T09:59:00.215Z,96325.75
2023-05-01T10:01:39.827Z,96328.00
2023-05-01T10:04:06.767Z,96328.56
2023-05-01T10:06:33.165Z,96327.53
2023-05-01T10:08:59.609Z,96324.59
2023-05-01T10:11:27.467Z,96323.09
2023-05-01T10:14:05.195Z,96318.69
2023-05-01T10:16:31.816Z,96320.56
2023-05-01T10:18:58.870Z,96316.88
2023-05-01T10:21:25.495Z,96326.03
2023-05-01T10:23:53.095Z,96320.84
2023-05-01T10:26:20.720Z,96315.34
2023-05-01T10:28:48.100Z,96315.09
2023-05-01T10:31:15.357Z,96311.56
2023-05-01T10:33:42.840Z,96309.56
2023-05-01T10:36:11.648Z,96307.50
2023-05-01T10:38:38.173Z,96307.59
2023-05-01T10:41:06.270Z,96314.31
2023-05-01T10:43:32.791Z,96303.22
2023-05-01T10:46:08.557Z,96310.13
2023-05-01T10:48:37.745Z,96308.34
2023-05-01T10:51:11.578Z,96316.78
2023-05-01T10:53:43.233Z,96313.97
2023-05-01T10:56:32.791Z,96310.44
2023-05-01T10:59:00.897Z,96307.31
2023-05-01T11:01:30.256Z,96308.50
2023-05-01T11:03:57.665Z,96305.19
2023-05-01T11:06:24.481Z,96301.34
2023-05-01T11:08:50.875Z,96305.16
2023-05-01T11:11:21.026Z,96311.25
2023-05-01T11:14:00.441Z,96307.97
2023-05-01T11:16:39.534Z,96307.03
2023-05-01T11:19:05.914Z,96306.38
2023-05-01T11:21:34.042Z,96302.09
2023-05-01T11:24:01.151Z,96305.00
2023-05-01T11:26:32.498Z,96304.94
2023-05-01T11:28:59.699Z,96305.78
2023-05-01T11:31:28.155Z,96310.63
2023-05-01T11:33:58.513Z,96299.88
2023-05-01T11:36:25.190Z,96299.91
2023-05-01T11:38:52.651Z,96304.19
2023-05-01T11:41:22.724Z,96295.72
2023-05-01T11:43:53.112Z,96303.41
2023-05-01T11:46:29.301Z,96298.59
2023-05-01T11:48:59.532Z,96301.25
2023-05-01T11:51:27.401Z,96303.94
2023-05-01T11:54:09.697Z,96309.94
2023-05-01T11:56:36.799Z,96304.38
2023-05-01T11:59:13.579Z,96308.19
2023-05-01T12:01:43.223Z,96299.72
2023-05-01T12:04:09.827Z,96305.31
2023-05-01T12:06:36.975Z,96308.19
2023-05-01T12:09:04.110Z,96299.03
2023-05-01T12:11:30.552Z,96296.78
2023-05-01T12:13:57.877Z,96302.75
2023-05-01T12:16:25.336Z,96303.75
2023-05-01T12:18:52.641Z,96310.47
2023-05-01T12:21:19.795Z,96308.94
2023-05-01T12:23:47.580Z,96311.06
2023-05-01T12:26:18.184Z,96309.13
2023-05-01T12:28:58.310Z,96309.94
2023-05-01T12:31:25.748Z,96308.94
2023-05-01T12:33:53.357Z,96307.69
2023-05-01T12:36:25.170Z,96309.28
2023-05-01T12:38:56.286Z,96309.88
2023-05-01T12:41:32.424Z,96313.53
2023-05-01T12:43:58.725Z,96317.56
2023-05-01T12:46:25.096Z,96319.44
2023-05-01T12:48:52.409Z,96311.69
2023-05-01T12:51:21.082Z,96312.28
2023-05-01T12:53:48.073Z,96324.28
2023-05-01T12:56:24.617Z,96319.06
2023-05-01T12:58:52.100Z,96312.88
2023-05-01T13:01:28.379Z,96315.28
2023-05-01T13:03:57.671Z,96313.50
2023-05-01T13:06:32.444Z,96322.25
2023-05-01T13:09:17.584Z,96328.91
2023-05-01T13:11:56.501Z,96323.91
2023-05-01T13:14:23.090Z,96323.34
2023-05-01T13:16:49.677Z,96323.56
2023-05-01T13:19:25.704Z,96327.53
2023-05-01T13:21:53.676Z,96318.84
2023-05-01T13:24:20.045Z,96322.72
2023-05-01T13:26:46.782Z,96324.59
2023-05-01T13:29:16.338Z,96328.69
2023-05-01T13:31:43.386Z,96333.59
2023-05-01T13:34:09.840Z,96335.63
2023-05-01T13:36:36.151Z,96332.50
2023-05-01T13:39:02.536Z,96327.91
2023-05-01T13:41:30.573Z,96329.13
2023-05-01T13:43:57.665Z,96327.06
2023-05-01T13:46:25.192Z,96328.75
2023-05-01T13:48:52.038Z,96328.59
2023-05-01T13:51:25.217Z,96335.28
2023-05-01T13:54:00.865Z,96327.59
2023-05-01T13:56:27.633Z,96333.03
2023-05-01T13:58:54.049Z,96337.50
2023-05-01T14:01:21.430Z,96334.16
2023-05-01T14:03:48.488Z,96332.59
2023-05-01T14:06:17.666Z,96333.53
2023-05-01T14:08:44.716Z,96328.94
2023-05-01T14:11:11.653Z,96339.81
2023-05-01T14:13:41.662Z,96342.25
2023-05-01T14:16:14.297Z,96339.31
2023-05-01T14:18:45.056Z,96341.44
2023-05-01T14:21:12.565Z,96349.00
2023-05-01T14:23:42.085Z,96348.53
2023-05-01T14:26:08.975Z,96344.59
2023-05-01T14:28:41.345Z,96345.22
2023-05-01T14:31:08.489Z,96353.13
2023-05-01T14:33:41.266Z,96353.16
2023-05-01T14:36:07.971Z,96358.84
2023-05-01T14:38:39.096Z,96358.81
2023-05-01T14:41:05.860Z,96366.97
2023-05-01T14:43:34.698Z,96369.16
2023-05-01T14:46:01.193Z,96364.06
2023-05-01T14:48:35.005Z,96373.72
2023-05-01T14:51:02.107Z,96366.19
2023-05-01T14:53:31.739Z,96369.38
2023-05-01T14:55:58.172Z,96363.44
2023-05-01T14:58:25.197Z,96365.56
2023-05-01T15:00:51.566Z,96370.94
2023-05-01T15:03:18.276Z,96373.09
2023-05-01T15:05:46.103Z,96371.50
2023-05-01T15:08:12.505Z,96370.81
2023-05-01T15:10:38.922Z,96366.09
2023-05-01T15:13:06.645Z,96373.09
2023-05-01T15:15:33.000Z,96369.22
2023-05-01T15:17:59.420Z,96374.69
2023-05-01T15:20:25.928Z,96376.91
2023-05-01T15:22:52.405Z,96372.22
2023-05-01T15:25:18.845Z,96374.88
2023-05-01T15:27:46.137Z,96371.47
2023-05-01T15:30:12.752Z,96374.44
2023-05-01T15:32:39.226Z,96369.84
2023-05-01T15:35:05.869Z,96373.19
2023-05-01T15:37:33.085Z,96369.78
2023-05-01T15:39:59.609Z,96370.91
2023-05-01T15:42:28.773Z,96365.06
2023-05-01T15:44:55.103Z,96369.47
2023-05-01T15:47:21.429Z,96372.97
2023-05-01T15:49:48.690Z,96370.28
2023-05-01T15:52:15.349Z,96378.69
2023-05-01T15:54:41.750Z,96371.09
2023-05-01T15:57:09.264Z,96367.84
2023-05-01T15:59:36.160Z,96361.53
2023-05-01T16:02:05.375Z,96369.97
2023-05-01T16:04:34.133Z,96359.88
2023-05-01T16:07:09.121Z,96366.72
2023-05-01T16:09:35.940Z,96365.63
2023-05-01T16:14:43.500Z,96367.56
2023-05-01T16:17:09.832Z,96366.88
2023-05-01T16:19:38.860Z,96368.19
2023-05-01T16:22:06.881Z,96374.63
2023-05-01T16:24:34.074Z,96376.38
2023-05-01T16:27:02.179Z,96374.59
2023-05-01T16:29:28.848Z,96376.00
2023-05-01T16:31:55.397Z,96382.41
2023-05-01T16:34:23.868Z,96379.59
2023-05-01T16:36:50.156Z,96382.41
2023-05-01T16:39:21.508Z,96384.03
2023-05-01T16:41:52.073Z,96380.88
2023-05-01T16:44:19.385Z,96385.72
2023-05-01T16:46:56.219Z,96380.03
2023-05-01T16:49:23.264Z,96388.22
2023-05-01T16:51:50.240Z,96387.41
2023-05-01T16:54:16.800Z,96392.63
2023-05-01T16:56:43.432Z,96387.41
2023-05-01T16:59:09.867Z,96396.38
2023-05-01T17:01:36.267Z,96392.75
2023-05-01T17:04:02.840Z,96392.88
2023-05-01T17:06:29.333Z,96387.66
2023-05-01T17:08:58.808Z,96399.47
2023-05-01T17:11:36.031Z,96401.34
2023-05-01T17:14:03.708Z,96402.41
2023-05-01T17:16:30.702Z,96398.91
2023-05-01T17:18:59.640Z,96400.50
2023-05-01T17:21:28.394Z,96400.50
2023-05-01T17:23:55.106Z,96402.41
2023-05-01T17:26:23.074Z,96406.16
2023-05-01T17:28:50.496Z,96403.22
2023-05-01T17:31:18.303Z,96408.44
2023-05-01T17:33:46.091Z,96413.22
2023-05-01T17:36:12.480Z,96401.72
2023-05-01T17:38:39.073Z,96406.81
2023-05-01T17:41:05.494Z,96410.41
2023-05-01T17:43:31.800Z,96411.63
2023-05-01T17:45:58.782Z,96409.63
2023-05-01T17:48:26.150Z,96419.00
2023-05-01T17:50:53.879Z,96411.25
2023-05-01T17:53:20.523Z,96414.16
2023-05-01T17:55:46.825Z,96416.97
2023-05-01T17:58:13.628Z,96426.38
2023-05-01T18:00:40.506Z,96426.25
2023-05-01T18:03:08.761Z,96423.94
2023-05-01T18:05:35.318Z,96418.06
2023-05-01T18:08:01.785Z,96421.91
2023-05-01T18:10:31.148Z,96431.28
2023-05-01T18:12:58.949Z,96428.88
2023-05-01T18:15:25.621Z,96432.63
2023-05-01T18:17:52.062Z,96435.56
2023-05-01T18:20:18.633Z,96438.59
2023-05-01T18:22:45.244Z,96442.50
2023-05-01T18:25:12.222Z,96438.44
2023-05-01T18:27:38.897Z,96441.34
2023-05-01T18:30:05.512Z,96438.97
2023-05-01T18:32:46.207Z,96445.53
2023-05-01T18:35:13.802Z,96447.22
2023-05-01T18:37:42.217Z,96450.38
2023-05-01T18:40:09.425Z,96466.66
2023-05-01T18:42:36.164Z,96471.03
2023-05-01T18:45:03.477Z,96473.16
2023-05-01T18:47:29.818Z,96474.88
2023-05-01T18:49:57.975Z,96492.88
2023-05-01T18:52:24.526Z,96493.63
2023-05-01T18:54:51.506Z,96494.06
2023-05-01T18:57:17.936Z,96506.34
2023-05-01T18:59:44.908Z,96500.72
2023-05-01T19:02:11.558Z,96505.81
2023-05-01T19:04:49.397Z,96508.22
2023-05-01T19:07:23.828Z,96507.69
2023-05-01T19:09:50.146Z,96517.09
2023-05-01T19:12:16.566Z,96510.09
2023-05-01T19:14:42.858Z,96514.53
2023-05-01T19:17:10.067Z,96525.56
2023-05-01T19:19:36.384Z,96527.16
2023-05-01T19:22:02.733Z,96524.50
2023-05-01T19:24:29.137Z,96528.28
2023-05-01T19:26:55.463Z,96532.13
2023-05-01T19:29:21.958Z,96529.84
2023-05-01T19:31:48.719Z,96536.22
2023-05-01T19:34:15.118Z,96529.59
2023-05-01T19:36:41.406Z,96541.75
2023-05-01T19:39:07.818Z,96542.09
2023-05-01T19:41:34.633Z,96539.69
2023-05-01T19:44:01.372Z,96552.50
2023-05-01T19:46:28.881Z,96545.94
2023-05-01T19:48:55.367Z,96555.78
2023-05-01T19:51:21.776Z,96555.13
2023-05-01T19:53:48.195Z,96551.41
2023-05-01T19:56:15.436Z,96560.50
2023-05-01T19:58:41.914Z,96551.94
2023-05-01T20:01:11.684Z,96569.59
2023-05-01T20:03:38.421Z,96560.69
2023-05-01T20:06:08.534Z,96565.19
2023-05-01T20:08:35.011Z,96570.03
2023-05-01T20:11:01.808Z,96572.56
2023-05-01T20:13:28.635Z,96579.56
2023-05-01T20:15:55.332Z,96579.97
2023-05-01T20:18:22.143Z,96587.19
2023-05-01T20:20:48.500Z,96592.03
2023-05-01T20:23:16.105Z,96596.88
2023-05-01T20:25:43.311Z,96593.97
2023-05-01T20:28:11.075Z,96594.56
2023-05-01T20:30:40.726Z,96600.59
2023-05-01T20:33:08.107Z,96597.84
2023-05-01T20:35:35.040Z,96594.06
2023-05-01T20:38:02.431Z,96595.28
2023-05-01T20:40:29.281Z,96593.25
2023-05-01T20:42:56.132Z,96597.00
2023-05-01T20:45:22.765Z,96584.06
2023-05-01T20:47:49.988Z,96591.56
2023-05-01T20:50:17.526Z,96589.38
2023-05-01T20:52:45.236Z,96589.38
2023-05-01T20:55:12.032Z,96586.41
2023-05-01T20:57:39.008Z,96585.78
2023-05-01T21:00:05.964Z,96590.63
2023-05-01T21:02:32.384Z,96587.47
2023-05-01T21:04:58.690Z,96584.25
2023-05-01T21:07:25.286Z,96587.97
2023-05-01T21:09:51.606Z,96590.06
2023-05-01T21:12:17.898Z,96593.16
2023-05-01T21:14:44.225Z,96587.41
2023-05-01T21:17:10.633Z,96590.56
2023-05-01T21:19:42.225Z,96593.56
2023-05-01T21:22:20.772Z,96585.72
2023-05-01T21:24:51.145Z,96588.75
2023-05-01T21:27:17.772Z,96586.66
2023-05-01T21:29:44.187Z,96586.44
2023-05-01T21:32:10.470Z,96586.44
2023-05-01T21:34:36.845Z,96586.09
2023-05-01T21:37:03.507Z,96583.88
2023-05-01T21:39:30.742Z,96576.84
2023-05-01T21:41:57.469Z,96573.78
2023-05-01T21:44:28.777Z,96571.00
2023-05-01T21:46:56.013Z,96572.16
2023-05-01T21:49:23.360Z,96574.19
2023-05-01T21:51:49.748Z,96577.88
2023-05-01T21:54:16.584Z,96567.97
2023-05-01T21:56:42.908Z,96572.81
2023-05-01T21:59:10.134Z,96569.47
2023-05-01T22:01:38.124Z,96562.66
2023-05-01T22:04:06.642Z,96577.41
2023-05-01T22:06:33.909Z,96580.66
2023-05-01T22:09:00.450Z,96579.03
2023-05-01T22:11:27.611Z,96577.88
2023-05-01T22:13:53.918Z,96575.19
2023-05-01T22:16:20.293Z,96583.19
2023-05-01T22:18:48.619Z,96580.63
2023-05-01T22:21:16.532Z,96582.84
2023-05-01T22:23:42.957Z,96577.28
2023-05-01T22:26:09.241Z,96585.03
2023-05-01T22:28:36.854Z,96582.50
2023-05-01T22:31:04.131Z,96579.50
2023-05-01T22:33:30.769Z,96592.75
2023-05-01T22:35:58.021Z,96583.34
2023-05-01T22:38:24.398Z,96579.88
2023-05-01T22:40:51.050Z,96576.97
2023-05-01T22:43:17.403Z,96581.91
2023-05-01T22:45:44.049Z,96582.53
2023-05-01T22:48:10.966Z,96580.09
2023-05-01T22:50:37.436Z,96586.22
2023-05-01T22:53:04.056Z,96585.78
2023-05-01T22:55:30.476Z,96593.81
2023-05-01T22:57:57.622Z,96591.28
2023-05-01T23:00:29.359Z,96597.28
2023-05-01T23:02:56.365Z,96602.09
2023-05-01T23:05:23.412Z,96592.06
2023-05-01T23:07:49.891Z,96596.06
2023-05-01T23:10:16.869Z,96599.31
2023-05-01T23:12:43.851Z,96599.09
2023-05-01T23:15:17.077Z,96601.63
2023-05-01T23:17:43.489Z,96613.31
2023-05-01T23:20:12.737Z,96612.25
2023-05-01T23:22:40.705Z,96617.00
2023-05-01T23:25:07.852Z,96615.50
2023-05-01T23:27:36.059Z,96621.25
2023-05-01T23:30:05.030Z,96623.00
2023-05-01T23:32:31.971Z,96620.81
2023-05-01T23:35:04.187Z,96621.25
2023-05-01T23:37:30.586Z,96618.16
2023-05-01T23:39:58.688Z,96622.53
2023-05-01T23:42:25.348Z,96624.38
2023-05-01T23:44:52.185Z,96629.06
2023-05-01T23:47:19.030Z,96620.91
2023-05-01T23:49:45.585Z,96621.47
2023-05-01T23:52:12.563Z,96625.16
2023-05-01T23:54:38.957Z,96625.63
2023-05-01T23:57:05.312Z,96626.78
2023-05-01T23:59:31.794Z,96625.16
